Time;durP1;ratioP1;P1;durP2;ratioP2;P2;SDS_P1;SDS_P2;PMS_P1;PMS_P2;Temp;Humidity;BMP_temperature;BMP_pressure;BME280_temperature;BME280_humidity;BME280_pressure;Samples;Min_cycle;Max_cycle;Signal;HPM_P1;HPM_P2
2021/12/28 00:02:02;;;;;;;10.25;4.72;;;17.20;99.90;;;;;;4179915;28;20270;-75
2021/12/28 00:04:07;;;;;;;15.63;5.93;;;17.20;99.90;;;;;;4180249;28;20278;-75
2021/12/28 00:06:10;;;;;;;10.40;6.25;;;17.20;99.90;;;;;;4180058;28;20286;-75
2021/12/28 00:08:13;;;;;;;16.25;5.90;;;17.20;99.90;;;;;;4180037;28;20238;-75
2021/12/28 00:10:18;;;;;;;16.58;6.43;;;17.10;99.90;;;;;;4179548;28;20215;-75
2021/12/28 00:12:20;;;;;;;17.00;5.60;;;17.10;99.90;;;;;;4179765;28;20630;-74
2021/12/28 00:14:33;;;;;;;15.18;5.80;;;17.20;99.90;;;;;;4179494;28;20215;-75
2021/12/28 00:17:58;;;;;;;12.73;5.60;;;17.20;99.90;;;;;;4179560;28;20203;-75
2021/12/28 00:18:58;;;;;;;10.70;4.90;;;17.20;99.90;;;;;;4181663;28;20278;-75
2021/12/28 00:21:04;;;;;;;13.85;5.70;;;17.10;99.90;;;;;;4182923;28;20208;-75
2021/12/28 00:23:10;;;;;;;11.25;4.90;;;17.20;99.90;;;;;;4182763;28;20215;-75
2021/12/28 00:25:15;;;;;;;13.75;5.43;;;17.10;99.90;;;;;;4182997;28;20623;-75
2021/12/28 00:27:17;;;;;;;13.93;5.68;;;17.10;99.90;;;;;;4182591;28;20629;-75
2021/12/28 00:29:20;;;;;;;10.95;5.50;;;17.10;99.90;;;;;;4182660;28;20215;-74
2021/12/28 00:31:24;;;;;;;14.02;5.72;;;17.20;99.90;;;;;;4182776;28;20742;-75
2021/12/28 00:33:27;;;;;;;10.52;5.10;;;17.10;99.90;;;;;;4182399;28;20285;-75
2021/12/28 00:35:34;;;;;;;13.57;5.10;;;17.10;99.90;;;;;;4182472;28;20220;-75
2021/12/28 00:37:36;;;;;;;14.82;5.57;;;17.10;99.90;;;;;;4182786;28;20207;-75
2021/12/28 00:39:39;;;;;;;10.77;5.18;;;17.10;99.90;;;;;;4182630;28;20310;-75
2021/12/28 00:41:43;;;;;;;16.13;5.90;;;17.10;99.90;;;;;;4182493;28;20212;-75
2021/12/28 00:43:45;;;;;;;14.75;5.72;;;17.10;99.90;;;;;;4182555;28;20203;-75
2021/12/28 00:45:48;;;;;;;15.65;5.65;;;17.10;99.90;;;;;;4182243;28;20212;-75
2021/12/28 00:47:51;;;;;;;12.98;5.28;;;17.10;99.90;;;;;;4179435;28;20220;-75
2021/12/28 00:49:56;;;;;;;16.00;5.55;;;17.10;99.90;;;;;;4183315;28;20211;-75
2021/12/28 00:51:58;;;;;;;15.70;5.65;;;17.10;99.90;;;;;;4199462;28;20222;-75
2021/12/28 00:54:00;;;;;;;13.52;5.20;;;17.10;99.90;;;;;;4199131;28;20596;-75
2021/12/28 00:56:04;;;;;;;13.73;5.63;;;17.10;99.90;;;;;;4199264;28;20223;-75
2021/12/28 00:58:07;;;;;;;10.98;4.85;;;17.10;99.90;;;;;;4199332;28;20218;-75
2021/12/28 01:00:13;;;;;;;12.05;5.13;;;17.10;99.90;;;;;;4198878;28;20211;-75
2021/12/28 01:02:15;;;;;;;15.15;5.78;;;17.10;99.90;;;;;;4198679;28;20215;-75
2021/12/28 01:04:17;;;;;;;14.05;5.28;;;17.10;99.90;;;;;;4199078;28;20211;-75
2021/12/28 01:06:20;;;;;;;10.95;4.93;;;17.10;99.90;;;;;;4199168;28;20239;-75
2021/12/28 01:08:22;;;;;;;12.98;5.22;;;17.10;99.90;;;;;;4198924;28;20280;-75
2021/12/28 01:10:27;;;;;;;13.43;5.22;;;17.10;99.90;;;;;;4198290;28;20211;-75
2021/12/28 01:12:30;;;;;;;14.13;5.47;;;17.10;99.90;;;;;;4198837;28;20211;-75
2021/12/28 01:14:33;;;;;;;11.98;4.88;;;17.10;99.90;;;;;;4198500;28;20227;-75
2021/12/28 01:16:36;;;;;;;13.57;5.25;;;17.10;99.90;;;;;;4198452;28;20215;-75
2021/12/28 01:18:38;;;;;;;15.55;5.60;;;17.00;99.90;;;;;;4198961;28;20227;-75
2021/12/28 01:20:41;;;;;;;13.23;4.82;;;17.10;99.90;;;;;;4198962;28;20273;-75
2021/12/28 01:22:45;;;;;;;11.20;5.45;;;17.00;99.90;;;;;;4198980;28;20656;-75
2021/12/28 01:24:47;;;;;;;11.98;4.95;;;17.10;99.90;;;;;;4198742;28;20215;-75
2021/12/28 01:26:50;;;;;;;11.50;5.07;;;17.10;99.90;;;;;;4198700;28;20285;-75
2021/12/28 01:28:52;;;;;;;14.65;5.28;;;17.10;99.90;;;;;;4198378;28;20223;-75
2021/12/28 01:30:56;;;;;;;17.35;5.80;;;17.00;99.90;;;;;;4197530;28;20225;-75
2021/12/28 01:33:00;;;;;;;14.82;5.78;;;17.00;99.90;;;;;;4198814;28;20297;-74
2021/12/28 01:35:05;;;;;;;16.92;5.22;;;17.00;99.90;;;;;;4198375;28;20269;-75
2021/12/28 01:37:08;;;;;;;14.10;5.15;;;17.00;99.90;;;;;;4198742;28;20264;-75
2021/12/28 01:39:11;;;;;;;12.05;4.70;;;17.00;99.90;;;;;;4198339;28;20219;-75
2021/12/28 01:41:14;;;;;;;13.25;4.65;;;17.00;99.90;;;;;;4198445;28;20223;-75
2021/12/28 01:43:20;;;;;;;10.68;4.57;;;17.00;99.90;;;;;;4198417;28;20215;-75
2021/12/28 01:45:31;;;;;;;17.60;5.35;;;17.00;99.90;;;;;;4165624;28;20212;-75
2021/12/28 01:47:35;;;;;;;16.30;5.22;;;17.00;99.90;;;;;;4165250;28;20286;-74
2021/12/28 01:49:37;;;;;;;17.00;4.72;;;17.00;99.90;;;;;;4165671;28;20224;-75
2021/12/28 01:51:40;;;;;;;11.60;4.85;;;17.00;99.90;;;;;;4165317;28;20727;-75
2021/12/28 01:53:42;;;;;;;14.20;5.10;;;17.00;99.90;;;;;;4165792;28;20216;-74
2021/12/28 01:55:48;;;;;;;15.13;5.70;;;17.00;99.90;;;;;;4165221;28;20756;-75
2021/12/28 01:57:50;;;;;;;13.00;4.85;;;17.00;99.90;;;;;;4165259;28;20275;-75
2021/12/28 01:59:52;;;;;;;14.65;4.88;;;17.00;99.90;;;;;;4165096;28;20216;-75
2021/12/28 02:01:56;;;;;;;11.45;5.30;;;17.00;99.90;;;;;;4165392;28;20724;-75
2021/12/28 02:04:01;;;;;;;14.40;5.03;;;17.00;99.90;;;;;;4165054;28;20220;-75
2021/12/28 02:06:04;;;;;;;13.48;4.85;;;17.00;99.90;;;;;;4165239;28;20275;-75
2021/12/28 02:08:08;;;;;;;13.73;5.68;;;17.00;99.90;;;;;;4165221;28;20669;-75
2021/12/28 02:10:10;;;;;;;12.85;4.75;;;17.00;99.90;;;;;;4165233;28;20212;-75
2021/12/28 02:12:12;;;;;;;12.25;4.93;;;16.90;99.90;;;;;;4165120;28;20220;-75
2021/12/28 02:14:15;;;;;;;14.13;4.78;;;17.00;99.90;;;;;;4165387;28;20216;-75
2021/12/28 02:16:18;;;;;;;12.48;4.57;;;17.00;99.90;;;;;;4164719;28;20216;-75
2021/12/28 02:18:23;;;;;;;11.13;4.10;;;17.00;99.90;;;;;;4165191;28;20661;-75
2021/12/28 02:20:26;;;;;;;11.35;4.88;;;16.90;99.90;;;;;;4165022;28;20272;-75
2021/12/28 02:22:29;;;;;;;13.30;4.50;;;16.90;99.90;;;;;;4164843;28;20216;-75
2021/12/28 02:24:31;;;;;;;13.82;4.60;;;17.00;99.90;;;;;;4164918;28;20217;-75
2021/12/28 02:26:34;;;;;;;12.73;4.35;;;16.90;99.90;;;;;;4164695;28;20263;-75
2021/12/28 02:28:36;;;;;;;13.57;4.72;;;16.90;99.90;;;;;;4164634;28;20239;-74
2021/12/28 02:30:41;;;;;;;10.93;4.28;;;16.90;99.90;;;;;;4164484;28;20275;-75
2021/12/28 02:32:45;;;;;;;13.95;4.30;;;16.90;99.90;;;;;;4164036;28;20359;-75
2021/12/28 02:34:47;;;;;;;13.88;4.75;;;16.90;99.90;;;;;;4164716;28;20740;-75
2021/12/28 02:36:51;;;;;;;10.88;4.05;;;16.90;99.90;;;;;;4167247;28;20211;-75
2021/12/28 02:38:53;;;;;;;10.70;4.30;;;16.90;99.90;;;;;;4178418;28;20204;-75
2021/12/28 02:40:56;;;;;;;13.77;4.75;;;16.90;99.90;;;;;;4180571;28;20215;-75
2021/12/28 02:43:00;;;;;;;13.10;4.50;;;16.90;99.90;;;;;;4181012;28;20211;-75
2021/12/28 02:45:09;;;;;;;11.07;3.92;;;16.90;99.90;;;;;;4180900;28;20258;-75
2021/12/28 02:47:17;;;;;;;11.60;4.20;;;16.90;99.90;;;;;;4180761;28;20945;-75
2021/12/28 02:49:19;;;;;;;14.75;4.85;;;16.90;99.90;;;;;;4180966;28;20722;-75
2021/12/28 02:51:21;;;;;;;12.60;4.00;;;16.90;99.90;;;;;;4180591;28;20224;-75
2021/12/28 02:53:26;;;;;;;11.20;4.25;;;16.90;99.90;;;;;;4181002;28;20265;-75
2021/12/28 02:55:30;;;;;;;10.23;4.50;;;16.90;99.90;;;;;;4180763;28;20216;-75
2021/12/28 02:57:34;;;;;;;10.45;3.90;;;16.90;99.90;;;;;;4180602;28;20234;-75
2021/12/28 02:59:45;;;;;;;13.30;4.80;;;16.90;99.90;;;;;;4180242;28;20227;-75
2021/12/28 03:01:48;;;;;;;11.65;4.43;;;16.90;99.90;;;;;;4180774;28;20774;-75
2021/12/28 03:03:52;;;;;;;13.07;4.50;;;16.90;99.90;;;;;;4180602;28;20269;-75
2021/12/28 03:05:57;;;;;;;10.98;4.20;;;16.90;99.90;;;;;;4180559;28;20212;-75
2021/12/28 03:08:00;;;;;;;10.70;3.67;;;16.90;99.90;;;;;;4180845;28;20638;-75
2021/12/28 03:10:04;;;;;;;10.65;4.40;;;16.90;99.90;;;;;;4180582;28;20215;-75
2021/12/28 03:12:09;;;;;;;10.63;4.05;;;16.90;99.90;;;;;;4180787;28;20220;-74
2021/12/28 03:14:11;;;;;;;9.60;4.20;;;16.90;99.90;;;;;;4180025;28;20220;-75
2021/12/28 03:16:16;;;;;;;10.93;3.88;;;16.90;99.90;;;;;;4180838;28;20247;-75
2021/12/28 03:18:18;;;;;;;10.52;4.28;;;16.90;99.90;;;;;;4180876;28;20211;-75
2021/12/28 03:20:20;;;;;;;9.20;4.05;;;16.90;99.90;;;;;;4179970;28;20216;-75
2021/12/28 03:22:23;;;;;;;11.95;4.60;;;16.90;99.90;;;;;;4180131;28;20212;-75
2021/12/28 03:24:25;;;;;;;10.95;4.30;;;16.90;99.90;;;;;;4180382;28;20212;-75
2021/12/28 03:26:29;;;;;;;9.70;4.07;;;16.90;99.90;;;;;;4180101;28;20220;-75
2021/12/28 03:28:33;;;;;;;12.65;4.10;;;16.90;99.90;;;;;;4180015;28;20235;-75
2021/12/28 03:30:35;;;;;;;10.77;3.65;;;16.90;99.90;;;;;;4180379;28;20242;-75
2021/12/28 03:32:38;;;;;;;14.85;4.15;;;16.90;99.90;;;;;;4180007;28;20235;-75
2021/12/28 03:34:40;;;;;;;11.13;4.05;;;16.90;99.90;;;;;;4180189;28;20270;-75
2021/12/28 03:36:42;;;;;;;9.88;4.10;;;16.90;99.90;;;;;;4180240;28;20215;-75
2021/12/28 03:38:46;;;;;;;9.55;3.90;;;16.90;99.90;;;;;;4180235;28;20208;-75
2021/12/28 03:40:49;;;;;;;10.52;3.92;;;16.90;99.90;;;;;;4180004;28;20258;-75
2021/12/28 03:42:53;;;;;;;10.32;3.80;;;16.90;99.90;;;;;;4180023;28;20274;-75
2021/12/28 03:44:55;;;;;;;9.43;3.63;;;16.90;99.90;;;;;;4180063;28;20215;-75
2021/12/28 03:46:57;;;;;;;11.25;4.07;;;16.90;99.90;;;;;;4179909;28;20220;-75
2021/12/28 03:49:00;;;;;;;8.13;3.55;;;16.90;99.90;;;;;;4180395;28;20293;-75
2021/12/28 03:51:03;;;;;;;11.55;4.03;;;16.90;99.90;;;;;;4180340;28;20220;-75
2021/12/28 03:53:07;;;;;;;10.32;3.95;;;16.90;99.90;;;;;;4181851;28;20223;-75
2021/12/28 03:55:10;;;;;;;9.50;3.47;;;16.80;99.90;;;;;;4185711;28;20215;-75
2021/12/28 03:57:12;;;;;;;9.40;3.63;;;16.80;99.90;;;;;;4185703;28;20611;-75
2021/12/28 03:59:16;;;;;;;9.90;3.67;;;16.80;99.90;;;;;;4185902;28;20572;-75
2021/12/28 04:01:21;;;;;;;12.95;4.00;;;16.80;99.90;;;;;;4185675;28;20257;-75
2021/12/28 04:03:23;;;;;;;8.40;3.35;;;16.80;99.90;;;;;;4185589;28;20215;-74
2021/12/28 04:05:26;;;;;;;10.23;3.40;;;16.80;99.90;;;;;;4185242;28;20223;-75
2021/12/28 04:07:29;;;;;;;9.93;3.78;;;16.90;99.90;;;;;;4185459;28;20215;-75
2021/12/28 04:09:57;;;;;;;7.88;3.30;;;16.90;99.90;;;;;;4185416;28;20231;-75
2021/12/28 04:12:00;;;;;;;8.30;3.42;;;16.80;99.90;;;;;;4185596;28;20195;-75
2021/12/28 04:14:08;;;;;;;7.53;3.13;;;16.80;99.90;;;;;;4185213;28;20215;-75
2021/12/28 04:16:12;;;;;;;8.30;3.35;;;16.80;99.90;;;;;;4185202;28;20219;-75
2021/12/28 04:18:16;;;;;;;9.95;3.88;;;16.80;99.90;;;;;;4185148;28;20260;-75
2021/12/28 04:20:21;;;;;;;8.25;3.45;;;16.80;99.90;;;;;;4185589;28;20261;-75
2021/12/28 04:22:23;;;;;;;9.82;3.65;;;16.80;99.90;;;;;;4185805;28;20195;-75
2021/12/28 04:24:25;;;;;;;9.98;3.15;;;16.80;99.90;;;;;;4183163;28;20536;-75
2021/12/28 04:26:29;;;;;;;9.27;3.30;;;16.80;99.90;;;;;;4180533;28;20207;-75
2021/12/28 04:28:32;;;;;;;11.57;3.42;;;16.80;99.90;;;;;;4185193;28;20231;-75
2021/12/28 04:30:44;;;;;;;12.25;4.20;;;16.80;99.90;;;;;;4185479;28;20269;-75
2021/12/28 04:32:48;;;;;;;9.95;3.88;;;16.80;99.90;;;;;;4176857;28;20232;-75
2021/12/28 04:34:50;;;;;;;11.77;3.30;;;16.80;99.90;;;;;;4168261;28;20217;-75
2021/12/28 04:36:53;;;;;;;7.35;2.97;;;16.80;99.90;;;;;;4168402;28;20216;-75
2021/12/28 04:38:55;;;;;;;13.63;4.20;;;16.80;99.90;;;;;;4168924;28;20278;-75
2021/12/28 04:40:58;;;;;;;9.82;3.67;;;16.80;99.90;;;;;;4168623;28;20643;-75
2021/12/28 04:43:01;;;;;;;12.38;3.53;;;16.80;99.90;;;;;;4168688;28;20212;-75
2021/12/28 04:45:06;;;;;;;11.85;3.55;;;16.80;99.90;;;;;;4168308;28;20219;-74
2021/12/28 04:47:09;;;;;;;9.77;3.65;;;16.80;99.90;;;;;;4168514;28;20294;-75
2021/12/28 04:49:12;;;;;;;8.95;3.40;;;16.80;99.90;;;;;;4168300;28;20244;-75
2021/12/28 04:51:15;;;;;;;8.82;2.97;;;16.80;99.90;;;;;;4168650;28;20216;-75
2021/12/28 04:53:17;;;;;;;13.77;3.72;;;16.80;99.90;;;;;;4168557;28;20220;-75
2021/12/28 04:55:19;;;;;;;12.95;4.03;;;16.80;99.90;;;;;;4168985;28;20262;-75
2021/12/28 04:57:22;;;;;;;9.43;3.60;;;16.80;99.90;;;;;;4168981;28;20633;-75
2021/12/28 04:59:24;;;;;;;10.60;3.13;;;16.70;99.90;;;;;;4168632;28;20216;-75
2021/12/28 05:01:26;;;;;;;8.68;3.30;;;16.80;99.90;;;;;;4168316;28;20224;-75
2021/12/28 05:03:29;;;;;;;7.75;2.95;;;16.80;99.90;;;;;;4168865;28;20225;-75
2021/12/28 05:05:33;;;;;;;7.10;2.78;;;16.70;99.90;;;;;;4164888;28;20267;-75
2021/12/28 05:07:35;;;;;;;8.52;3.05;;;16.70;99.90;;;;;;4166064;28;20216;-75
2021/12/28 05:09:37;;;;;;;8.82;2.65;;;16.70;99.90;;;;;;4166118;28;20245;-75
2021/12/28 05:11:40;;;;;;;12.68;3.00;;;16.70;99.90;;;;;;4166036;28;20228;-75
2021/12/28 05:13:44;;;;;;;6.78;2.97;;;16.80;99.90;;;;;;4166020;28;20665;-75
2021/12/28 05:15:48;;;;;;;8.48;2.92;;;16.80;99.90;;;;;;4166189;28;20657;-75
2021/12/28 05:17:50;;;;;;;8.30;2.95;;;16.80;99.90;;;;;;4166049;28;20262;-75
2021/12/28 05:19:53;;;;;;;9.93;3.45;;;16.70;99.90;;;;;;4165772;28;20327;-75
2021/12/28 05:21:57;;;;;;;7.28;2.90;;;16.70;99.90;;;;;;4165516;28;20266;-75
2021/12/28 05:23:59;;;;;;;7.05;2.65;;;16.70;99.90;;;;;;4166091;28;20974;-76
2021/12/28 05:26:02;;;;;;;9.10;3.05;;;16.70;99.90;;;;;;4166149;28;20216;-75
2021/12/28 05:28:07;;;;;;;7.05;2.63;;;16.70;99.90;;;;;;4165439;28;20264;-75
2021/12/28 05:30:11;;;;;;;10.52;3.10;;;16.70;99.90;;;;;;4165804;28;20236;-75
2021/12/28 05:32:14;;;;;;;5.38;2.70;;;16.70;99.90;;;;;;4169304;28;20285;-75
2021/12/28 05:34:16;;;;;;;5.30;2.63;;;16.70;99.90;;;;;;4181662;28;20215;-75
2021/12/28 05:36:18;;;;;;;5.53;2.65;;;16.70;99.90;;;;;;4181754;28;20216;-75
2021/12/28 05:38:22;;;;;;;5.45;2.63;;;16.70;99.90;;;;;;4182042;28;20211;-75
2021/12/28 05:40:24;;;;;;;7.25;2.70;;;16.70;99.90;;;;;;4182580;28;20212;-74
2021/12/28 05:42:27;;;;;;;7.10;2.95;;;16.70;99.90;;;;;;4182284;28;20262;-75
2021/12/28 05:44:29;;;;;;;5.95;2.60;;;16.70;99.90;;;;;;4181415;28;20285;-75
2021/12/28 05:46:31;;;;;;;7.65;2.80;;;16.60;99.90;;;;;;4181692;28;20215;-75
2021/12/28 05:48:34;;;;;;;5.32;2.60;;;16.70;99.90;;;;;;4181703;28;20326;-75
2021/12/28 05:50:37;;;;;;;5.53;2.40;;;16.70;99.90;;;;;;4182087;28;20219;-75
2021/12/28 05:52:40;;;;;;;4.80;2.28;;;16.70;99.90;;;;;;4181769;28;20668;-75
2021/12/28 05:54:44;;;;;;;7.13;2.85;;;16.70;99.90;;;;;;4181918;28;20257;-75
2021/12/28 05:56:46;;;;;;;6.85;2.65;;;16.70;99.90;;;;;;4181579;28;20224;-75
2021/12/28 05:58:49;;;;;;;6.78;2.63;;;16.60;99.90;;;;;;4181985;28;20528;-74
2021/12/28 06:00:51;;;;;;;7.22;2.78;;;16.70;99.90;;;;;;4181646;28;20664;-75
2021/12/28 06:02:53;;;;;;;5.43;2.40;;;16.70;99.90;;;;;;4181702;28;20204;-75
2021/12/28 06:04:56;;;;;;;4.70;2.35;;;16.70;99.90;;;;;;4181605;28;20224;-75
2021/12/28 06:06:58;;;;;;;5.95;2.17;;;16.70;99.90;;;;;;4181822;28;20220;-75
2021/12/28 06:09:00;;;;;;;6.28;2.60;;;16.70;99.90;;;;;;4181484;28;20611;-74
2021/12/28 06:11:07;;;;;;;6.50;2.72;;;16.70;99.90;;;;;;4181299;28;20599;-75
2021/12/28 06:13:09;;;;;;;6.18;2.42;;;16.70;99.90;;;;;;4176451;28;20262;-74
2021/12/28 06:15:13;;;;;;;3.90;1.85;;;16.70;99.90;;;;;;4177146;28;20216;-75
2021/12/28 06:17:15;;;;;;;5.43;2.50;;;16.70;99.90;;;;;;4181073;28;20718;-75
2021/12/28 06:19:17;;;;;;;6.07;2.35;;;16.70;99.90;;;;;;4181353;28;21064;-74
2021/12/28 06:21:20;;;;;;;6.68;2.33;;;16.80;99.90;;;;;;4181509;28;20219;-75
2021/12/28 06:23:22;;;;;;;4.82;2.13;;;16.80;99.90;;;;;;4180946;28;20219;-75
2021/12/28 06:25:25;;;;;;;4.80;2.33;;;16.80;99.90;;;;;;4181409;28;20263;-75
2021/12/28 06:27:29;;;;;;;5.60;2.20;;;16.80;99.90;;;;;;4181327;28;20221;-75
2021/12/28 06:29:31;;;;;;;5.43;2.25;;;16.80;99.90;;;;;;4180688;28;20235;-74
2021/12/28 06:31:35;;;;;;;4.13;1.90;;;16.80;99.90;;;;;;4181045;28;20277;-75
2021/12/28 06:33:37;;;;;;;5.03;2.30;;;16.80;99.90;;;;;;4165592;28;20290;-74
2021/12/28 06:35:40;;;;;;;5.47;2.22;;;16.80;99.90;;;;;;4164380;28;20266;-75
2021/12/28 06:37:43;;;;;;;6.38;2.22;;;16.90;99.90;;;;;;4163895;28;20647;-75
2021/12/28 06:39:45;;;;;;;5.97;2.25;;;16.80;99.90;;;;;;4164506;28;20213;-74
2021/12/28 06:41:48;;;;;;;4.50;1.95;;;16.90;99.90;;;;;;4164066;28;20224;-74
2021/12/28 06:43:51;;;;;;;3.67;1.75;;;16.90;99.90;;;;;;4164314;28;20209;-74
2021/12/28 06:45:55;;;;;;;3.30;1.88;;;16.90;99.90;;;;;;4164412;28;20271;-75
2021/12/28 06:47:57;;;;;;;4.63;2.20;;;16.90;99.90;;;;;;4164630;28;20309;-75
2021/12/28 06:49:59;;;;;;;2.53;1.45;;;16.90;99.90;;;;;;4164025;28;20574;-75
2021/12/28 06:52:02;;;;;;;4.57;2.00;;;17.00;99.90;;;;;;4164434;28;20660;-75
2021/12/28 06:54:04;;;;;;;3.33;1.60;;;17.00;99.90;;;;;;4163925;28;20278;-75
2021/12/28 06:56:07;;;;;;;4.65;2.10;;;17.00;99.90;;;;;;4164056;28;20216;-74
2021/12/28 06:58:09;;;;;;;3.72;1.77;;;17.00;99.90;;;;;;4164332;28;20220;-75
2021/12/28 07:00:16;;;;;;;3.88;1.90;;;17.00;99.90;;;;;;4164086;28;20619;-75
2021/12/28 07:02:19;;;;;;;4.40;2.05;;;17.00;99.90;;;;;;4164111;28;20278;-74
2021/12/28 07:04:21;;;;;;;3.17;1.60;;;17.10;99.90;;;;;;4164086;28;20216;-75
2021/12/28 07:06:26;;;;;;;4.15;1.95;;;17.10;99.90;;;;;;4163938;28;20290;-75
2021/12/28 07:08:29;;;;;;;3.92;1.83;;;17.10;99.90;;;;;;4164136;28;20258;-74
2021/12/28 07:10:31;;;;;;;4.32;1.88;;;17.10;99.90;;;;;;4163857;28;20278;-75
2021/12/28 07:12:34;;;;;;;4.43;2.03;;;17.10;99.90;;;;;;4164229;28;20212;-75
2021/12/28 07:14:36;;;;;;;3.03;1.45;;;17.10;99.90;;;;;;4164064;28;20212;-74
2021/12/28 07:16:40;;;;;;;3.20;1.70;;;17.20;99.90;;;;;;4163807;28;20270;-75
2021/12/28 07:18:42;;;;;;;4.15;1.77;;;17.10;99.90;;;;;;4164094;28;20213;-75
2021/12/28 07:20:44;;;;;;;3.67;1.50;;;17.10;99.90;;;;;;4163832;28;20607;-74
2021/12/28 07:22:46;;;;;;;3.97;1.65;;;17.20;99.90;;;;;;4163805;28;20216;-74
2021/12/28 07:24:49;;;;;;;3.20;1.67;;;17.20;99.90;;;;;;4163712;28;20344;-75
2021/12/28 07:26:52;;;;;;;4.75;1.70;;;17.20;99.90;;;;;;4163970;28;20224;-75
2021/12/28 07:28:54;;;;;;;2.60;1.40;;;17.20;99.90;;;;;;4163343;28;20262;-75
2021/12/28 07:30:58;;;;;;;4.63;1.75;;;17.20;99.90;;;;;;4163605;28;20279;-74
2021/12/28 07:33:04;;;;;;;2.97;1.73;;;17.30;99.90;;;;;;4173726;28;20305;-75
2021/12/28 07:35:08;;;;;;;2.83;1.40;;;17.30;99.90;;;;;;4180267;28;20220;-74
2021/12/28 07:37:11;;;;;;;2.10;1.50;;;17.30;99.90;;;;;;4179861;28;20215;-74
2021/12/28 07:39:13;;;;;;;2.88;1.40;;;17.30;99.90;;;;;;4180104;28;20722;-74
2021/12/28 07:41:16;;;;;;;2.63;1.83;;;17.30;99.90;;;;;;4179778;28;20257;-74
2021/12/28 07:43:18;;;;;;;3.55;1.50;;;17.30;99.90;;;;;;4180064;28;20626;-74
2021/12/28 07:45:20;;;;;;;3.47;1.60;;;17.30;99.90;;;;;;4163515;28;20220;-75
2021/12/28 07:47:23;;;;;;;3.22;1.50;;;17.30;99.90;;;;;;4163567;28;20216;-75
2021/12/28 07:49:27;;;;;;;3.67;1.75;;;17.40;99.90;;;;;;4163357;28;20217;-74
2021/12/28 07:51:29;;;;;;;3.58;1.63;;;17.40;99.90;;;;;;4163394;28;20356;-74
2021/12/28 07:53:32;;;;;;;3.88;1.80;;;17.40;99.90;;;;;;4163432;28;20243;-74
2021/12/28 07:55:34;;;;;;;3.88;1.55;;;17.40;99.90;;;;;;4163332;28;20220;-74
2021/12/28 07:57:37;;;;;;;3.60;1.65;;;17.40;99.90;;;;;;4163741;28;20270;-74
2021/12/28 07:59:39;;;;;;;2.20;1.38;;;17.40;99.90;;;;;;4163383;28;20221;-75
2021/12/28 08:01:42;;;;;;;2.35;1.52;;;17.50;99.90;;;;;;4166066;28;20269;-75
2021/12/28 08:03:44;;;;;;;3.60;1.40;;;17.40;99.90;;;;;;4176873;28;20257;-74
2021/12/28 08:05:48;;;;;;;3.17;1.65;;;17.50;99.90;;;;;;4176879;28;20212;-75
2021/12/28 08:07:50;;;;;;;3.60;1.50;;;17.50;99.90;;;;;;4176694;28;20672;-75
2021/12/28 08:09:52;;;;;;;2.85;1.38;;;17.50;99.90;;;;;;4177309;28;20208;-74
2021/12/28 08:11:55;;;;;;;2.17;1.58;;;17.50;99.90;;;;;;4177513;28;20600;-74
2021/12/28 08:13:57;;;;;;;3.70;1.60;;;17.60;99.90;;;;;;4176919;28;20219;-74
2021/12/28 08:15:59;;;;;;;3.17;1.67;;;17.50;99.90;;;;;;4176378;28;20220;-74
2021/12/28 08:18:03;;;;;;;3.65;1.52;;;17.50;99.90;;;;;;4176890;28;20270;-75
2021/12/28 08:20:06;;;;;;;3.92;1.27;;;17.50;99.90;;;;;;4176274;28;20649;-74
2021/12/28 08:22:10;;;;;;;3.38;1.38;;;17.60;99.90;;;;;;4176842;28;20224;-74
2021/12/28 08:24:14;;;;;;;3.88;1.50;;;17.60;99.90;;;;;;4176748;28;20212;-74
2021/12/28 08:26:17;;;;;;;3.13;1.50;;;17.60;99.90;;;;;;4177187;28;20215;-74
2021/12/28 08:28:20;;;;;;;3.38;1.50;;;17.60;99.90;;;;;;4174586;28;20223;-75
2021/12/28 08:30:22;;;;;;;2.50;1.30;;;17.60;99.90;;;;;;4176611;28;20239;-74
2021/12/28 08:32:25;;;;;;;3.33;1.67;;;17.60;99.90;;;;;;4173565;28;20285;-74
2021/12/28 08:34:27;;;;;;;3.00;1.38;;;17.60;99.90;;;;;;4167981;28;20219;-74
2021/12/28 08:36:29;;;;;;;3.00;1.40;;;17.70;99.90;;;;;;4165633;28;20278;-74
2021/12/28 08:38:33;;;;;;;2.70;1.30;;;17.70;99.90;;;;;;4164224;28;20244;-74
2021/12/28 08:40:36;;;;;;;2.40;1.10;;;17.70;99.90;;;;;;4166279;28;20213;-74
2021/12/28 08:42:39;;;;;;;2.50;1.30;;;17.70;99.90;;;;;;4171810;28;20212;-74
2021/12/28 08:44:41;;;;;;;2.35;1.10;;;17.70;99.90;;;;;;4169677;28;20285;-74
2021/12/28 08:46:45;;;;;;;3.40;1.50;;;17.70;99.90;;;;;;4169283;28;20278;-74
2021/12/28 08:48:47;;;;;;;3.60;1.40;;;17.70;99.90;;;;;;4170173;28;20651;-74
2021/12/28 08:50:50;;;;;;;3.65;1.40;;;17.70;99.90;;;;;;4170706;28;20297;-74
2021/12/28 08:52:53;;;;;;;2.20;1.20;;;17.70;99.90;;;;;;4171197;28;20220;-74
2021/12/28 08:54:57;;;;;;;2.42;1.35;;;17.80;99.90;;;;;;4169607;28;20274;-74
2021/12/28 08:57:00;;;;;;;2.67;1.40;;;17.80;99.90;;;;;;4169349;28;20216;-74
2021/12/28 08:59:02;;;;;;;4.95;1.73;;;17.80;99.90;;;;;;4171436;28;20228;-74
2021/12/28 09:01:05;;;;;;;3.15;1.63;;;17.80;99.90;;;;;;4167456;28;20258;-75
2021/12/28 09:03:07;;;;;;;2.28;1.20;;;17.80;99.90;;;;;;4166082;28;20232;-75
2021/12/28 09:05:10;;;;;;;2.63;1.40;;;17.80;99.90;;;;;;4168168;28;20224;-75
2021/12/28 09:07:13;;;;;;;4.18;1.20;;;17.80;99.90;;;;;;4170262;28;20220;-74
2021/12/28 09:09:15;;;;;;;2.85;1.25;;;17.80;99.90;;;;;;4168700;28;20220;-74
2021/12/28 09:11:19;;;;;;;2.42;1.27;;;17.80;99.90;;;;;;4166216;28;20232;-75
2021/12/28 09:13:21;;;;;;;2.85;1.33;;;17.80;99.90;;;;;;4166348;28;20266;-74
2021/12/28 09:15:24;;;;;;;2.25;1.27;;;17.90;99.90;;;;;;4166685;28;20215;-74
2021/12/28 09:17:27;;;;;;;1.92;1.20;;;17.90;99.90;;;;;;4165308;28;20952;-74
2021/12/28 09:19:30;;;;;;;2.28;1.20;;;17.80;99.90;;;;;;4168083;28;20269;-74
2021/12/28 09:21:32;;;;;;;1.63;1.15;;;17.90;99.90;;;;;;4166253;28;20722;-75
2021/12/28 09:23:35;;;;;;;2.38;1.30;;;17.90;99.90;;;;;;4165610;28;20215;-75
2021/12/28 09:25:37;;;;;;;2.05;1.20;;;17.90;99.90;;;;;;4167751;28;20232;-74
2021/12/28 09:27:43;;;;;;;3.28;1.20;;;17.90;99.90;;;;;;4167701;28;20617;-74
2021/12/28 09:29:45;;;;;;;1.90;1.00;;;17.90;99.90;;;;;;4167382;28;20247;-74
2021/12/28 09:31:48;;;;;;;3.60;1.25;;;17.90;99.90;;;;;;4167103;28;20286;-75
2021/12/28 09:33:50;;;;;;;2.40;1.05;;;17.90;99.90;;;;;;4185610;28;20260;-74
2021/12/28 09:35:53;;;;;;;1.83;1.05;;;17.90;99.90;;;;;;4184923;28;20238;-75
2021/12/28 09:37:55;;;;;;;0.98;0.75;;;18.00;99.90;;;;;;4185123;28;20734;-75
2021/12/28 09:39:58;;;;;;;2.60;1.38;;;18.00;99.90;;;;;;4185383;28;20211;-75
2021/12/28 09:42:02;;;;;;;3.58;1.08;;;18.00;99.90;;;;;;4185223;28;20219;-75
2021/12/28 09:44:06;;;;;;;2.97;1.30;;;18.00;99.90;;;;;;4184245;28;20216;-75
2021/12/28 09:46:09;;;;;;;2.08;1.23;;;18.00;99.90;;;;;;4183960;28;20273;-75
2021/12/28 09:48:11;;;;;;;1.50;1.00;;;18.00;99.90;;;;;;4184534;28;20753;-75
2021/12/28 09:50:16;;;;;;;1.75;1.10;;;18.10;99.90;;;;;;4184673;28;20206;-75
2021/12/28 09:52:19;;;;;;;2.05;1.08;;;18.00;99.90;;;;;;4184389;28;20236;-75
2021/12/28 09:54:24;;;;;;;2.42;1.30;;;18.00;99.90;;;;;;4184926;28;20594;-75
2021/12/28 09:56:27;;;;;;;2.20;1.10;;;18.00;99.90;;;;;;4181124;28;20219;-75
2021/12/28 09:58:29;;;;;;;2.05;1.15;;;18.00;99.90;;;;;;4183443;28;20619;-75
2021/12/28 10:00:33;;;;;;;2.33;0.80;;;18.10;99.90;;;;;;4183489;28;20256;-75
2021/12/28 10:02:36;;;;;;;2.13;0.95;;;18.10;99.90;;;;;;4181287;28;20919;-75
2021/12/28 10:04:53;;;;;;;2.13;0.90;;;18.10;99.90;;;;;;4184202;28;20261;-75
2021/12/28 10:07:16;;;;;;;1.85;1.00;;;18.10;99.90;;;;;;4182793;28;20236;-75
2021/12/28 10:09:21;;;;;;;1.20;0.95;;;18.10;99.90;;;;;;4182346;28;20212;-75
2021/12/28 10:11:32;;;;;;;2.08;1.10;;;18.10;99.90;;;;;;4182612;28;20358;-75
2021/12/28 10:13:35;;;;;;;2.15;1.10;;;18.10;99.90;;;;;;4182142;28;20218;-75
2021/12/28 10:15:42;;;;;;;1.40;0.90;;;18.10;99.90;;;;;;4179091;28;20211;-75
2021/12/28 10:17:46;;;;;;;3.63;1.00;;;18.20;99.90;;;;;;4182741;28;20651;-75
2021/12/28 10:19:48;;;;;;;2.88;1.15;;;18.20;99.90;;;;;;4182127;28;20257;-75
2021/12/28 10:21:51;;;;;;;1.60;1.02;;;18.20;99.90;;;;;;4182532;28;20282;-75
2021/12/28 10:23:58;;;;;;;1.75;0.82;;;18.20;99.90;;;;;;4182523;28;20212;-75
2021/12/28 10:26:02;;;;;;;2.15;1.15;;;18.20;99.90;;;;;;4182094;28;20208;-75
2021/12/28 10:28:07;;;;;;;1.88;1.08;;;18.20;99.90;;;;;;4181400;28;20261;-75
2021/12/28 10:30:14;;;;;;;2.05;0.88;;;18.20;99.90;;;;;;4181064;28;20605;-75
2021/12/28 10:32:22;;;;;;;1.88;1.02;;;18.20;99.90;;;;;;4185910;28;20296;-75
2021/12/28 10:34:24;;;;;;;1.08;0.90;;;18.20;99.90;;;;;;4185293;28;20211;-75
2021/12/28 10:36:33;;;;;;;1.77;1.00;;;18.20;99.90;;;;;;4177802;28;20266;-75
2021/12/28 10:38:38;;;;;;;2.47;0.98;;;18.30;99.90;;;;;;4177673;28;20613;-75
2021/12/28 10:40:44;;;;;;;3.10;0.90;;;18.20;99.90;;;;;;4178063;28;20281;-75